Time;durP1;ratioP1;P1;durP2;ratioP2;P2;SDS_P1;SDS_P2;PMS_P1;PMS_P2;Temp;Humidity;BMP_temperature;BMP_pressure;BME280_temperature;BME280_humidity;BME280_pressure;Samples;Min_cycle;Max_cycle;Signal;HPM_P1;HPM_P2
2021/12/14 00:01:31;;;;;;;10.13;3.30;;;;;;;-149.78;100.00;50592.72;5133424;27;20023;-77
2021/12/14 00:04:03;;;;;;;6.13;3.10;;;;;;;-149.78;100.00;50596.63;5134097;27;20035;-77
2021/12/14 00:06:29;;;;;;;8.65;3.70;;;;;;;-149.78;100.00;50584.88;5134277;27;20087;-77
2021/12/14 00:08:59;;;;;;;9.52;4.18;;;;;;;-149.78;100.00;50577.06;5135284;27;20031;-78
2021/12/14 00:11:54;;;;;;;8.05;3.88;;;;;;;-149.78;100.00;50584.88;5134108;27;20472;-77
2021/12/14 00:17:17;;;;;;;7.70;3.58;;;;;;;-149.78;100.00;50592.72;5133642;27;20119;-76
2021/12/14 00:19:44;;;;;;;8.20;3.20;;;;;;;-149.78;100.00;50592.72;5134560;27;20031;-75
2021/12/14 00:24:56;;;;;;;6.90;3.15;;;;;;;-149.78;100.00;50598.56;5118984;28;20046;-75
2021/12/14 00:27:23;;;;;;;8.27;3.45;;;;;;;-149.78;100.00;50590.75;5138789;27;20129;-75
2021/12/14 00:29:53;;;;;;;6.80;3.65;;;;;;;-149.78;100.00;50584.88;5141262;27;20042;-75
2021/12/14 00:32:23;;;;;;;6.97;3.10;;;;;;;-149.78;100.00;50608.34;5123015;27;20566;-75
2021/12/14 00:34:53;;;;;;;8.57;3.10;;;;;;;-149.78;100.00;50582.94;5149009;27;20026;-75
2021/12/14 00:37:25;;;;;;;11.85;3.58;;;;;;;-149.78;100.00;50569.22;5120791;27;20035;-75
2021/12/14 00:39:53;;;;;;;;;;;;;;;-149.78;100.00;50584.88;5120404;27;20034;-75
2021/12/14 00:42:21;;;;;;;7.53;3.00;;;;;;;-149.78;100.00;50616.19;5123541;27;19912;-75
2021/12/14 00:44:48;;;;;;;6.57;3.22;;;;;;;-149.78;100.00;50618.13;5141999;27;20118;-75
2021/12/14 00:47:14;;;;;;;9.30;4.15;;;;;;;-149.78;100.00;50592.72;5141837;27;20030;-75
2021/12/14 00:49:40;;;;;;;7.10;3.40;;;;;;;-149.78;100.00;50602.47;5141849;27;20067;-75
2021/12/14 00:52:07;;;;;;;9.82;3.47;;;;;;;-149.78;100.00;50616.19;5123380;27;20034;-75
2021/12/14 00:54:34;;;;;;;7.30;3.13;;;;;;;-149.78;100.00;50588.78;5123052;27;20084;-75
2021/12/14 00:57:00;;;;;;;7.47;3.30;;;;;;;-149.78;100.00;50579.00;5122863;27;20023;-75
2021/12/14 00:59:26;;;;;;;7.38;3.50;;;;;;;-149.78;100.00;50588.78;5122759;27;20035;-75
2021/12/14 01:02:06;;;;;;;6.70;3.20;;;;;;;-149.78;100.00;50565.31;5140915;27;20031;-75
2021/12/14 01:04:38;;;;;;;9.07;3.45;;;;;;;-149.78;100.00;50600.53;5123438;27;20042;-75
2021/12/14 01:07:07;;;;;;;8.23;3.90;;;;;;;-149.78;100.00;50608.34;5124538;27;20023;-75
2021/12/14 01:09:37;;;;;;;10.00;4.30;;;;;;;-149.78;100.00;50618.13;5142065;27;20065;-75
2021/12/14 01:12:10;;;;;;;9.68;4.20;;;;;;;-149.78;100.00;50561.41;5142474;27;20067;-75
2021/12/14 01:14:47;;;;;;;11.05;5.03;;;;;;;-149.78;100.00;50610.31;5144497;27;20027;-74
2021/12/14 01:17:42;;;;;;;13.15;6.00;;;;;;;-149.78;100.00;50592.72;5126740;27;20055;-75
2021/12/14 01:20:11;;;;;;;14.95;5.50;;;;;;;-149.78;100.00;50584.88;5141924;27;20346;-75
2021/12/14 01:25:14;;;;;;;15.20;5.72;;;;;;;-149.78;100.00;50573.16;5144660;27;20042;-75
2021/12/14 01:27:43;;;;;;;14.85;5.63;;;;;;;-149.78;100.00;50561.41;5142900;27;20119;-75
2021/12/14 01:30:22;;;;;;;14.98;6.07;;;;;;;-149.78;100.00;50588.78;5141017;27;20303;-75
2021/12/14 01:32:51;;;;;;;13.50;5.68;;;;;;;-149.78;100.00;50580.97;5140843;27;20498;-75
2021/12/14 01:35:23;;;;;;;14.65;5.70;;;;;;;-149.78;100.00;50580.97;5142269;27;20038;-75
2021/12/14 01:38:01;;;;;;;18.00;6.60;;;;;;;-149.78;100.00;50598.56;5122282;27;20036;-75
2021/12/14 01:43:15;;;;;;;14.65;5.22;;;;;;;-149.78;100.00;50577.06;5117144;28;20059;-75
2021/12/14 01:45:41;;;;;;;16.67;6.03;;;;;;;-149.78;100.00;50600.53;5098850;28;20027;-75
2021/12/14 01:48:07;;;;;;;14.23;5.30;;;;;;;-149.78;100.00;50561.41;5084232;28;20130;-76
2021/12/14 01:50:44;;;;;;;15.50;4.95;;;;;;;-149.78;100.00;50602.47;5085285;28;20056;-74
2021/12/14 01:53:13;;;;;;;15.98;5.63;;;;;;;-149.78;100.00;50592.72;5120856;28;20038;-76
2021/12/14 01:55:41;;;;;;;13.60;5.32;;;;;;;-149.78;100.00;50639.66;5120260;28;20039;-75
2021/12/14 01:58:09;;;;;;;18.45;6.38;;;;;;;-149.78;100.00;50596.63;5097300;27;20026;-75
2021/12/14 02:00:43;;;;;;;14.40;5.35;;;;;;;-149.78;100.00;50565.31;5121132;27;20023;-75
2021/12/14 02:03:13;;;;;;;14.57;6.00;;;;;;;-149.78;100.00;50614.22;5138890;27;20050;-75
2021/12/14 02:05:43;;;;;;;15.32;5.90;;;;;;;-149.78;100.00;50592.72;5139077;27;20019;-74
2021/12/14 02:08:19;;;;;;;15.13;5.55;;;;;;;-149.78;100.00;50543.81;5120995;27;20368;-74
2021/12/14 02:10:47;;;;;;;20.80;6.35;;;;;;;-149.78;100.00;50596.63;5139456;27;20035;-75
2021/12/14 02:13:32;;;;;;;18.27;7.32;;;;;;;-149.78;100.00;50588.78;5121461;27;20098;-75
2021/12/14 02:16:00;;;;;;;21.58;6.82;;;;;;;-149.78;100.00;50590.75;5121465;27;20023;-75
2021/12/14 02:18:29;;;;;;;22.25;8.18;;;;;;;-149.78;100.00;50579.00;5140473;27;20034;-75
2021/12/14 02:21:14;;;;;;;26.20;7.40;;;;;;;-149.78;100.00;50612.25;5140079;27;20129;-75
2021/12/14 02:23:45;;;;;;;23.95;8.32;;;;;;;-149.78;100.00;50532.06;5122618;27;20114;-75
2021/12/14 02:26:14;;;;;;;29.23;9.25;;;;;;;-149.78;100.00;50616.19;5140163;27;20035;-75
2021/12/14 02:28:41;;;;;;;28.35;9.45;;;;;;;-149.78;100.00;50582.94;5140039;27;20429;-75
2021/12/14 02:31:11;;;;;;;32.47;9.55;;;;;;;-149.78;100.00;50604.44;5104324;27;20035;-75
2021/12/14 02:33:40;;;;;;;32.03;9.68;;;;;;;-149.78;100.00;50608.34;5121306;27;20037;-75
2021/12/14 02:36:19;;;;;;;26.23;8.43;;;;;;;-149.78;100.00;50577.06;5120377;27;20031;-75
2021/12/14 02:38:53;;;;;;;29.13;9.35;;;;;;;-149.78;100.00;50631.81;5120149;27;20533;-75
2021/12/14 02:41:20;;;;;;;25.83;8.80;;;;;;;-149.78;100.00;50592.72;5120123;27;20031;-74
2021/12/14 02:43:50;;;;;;;25.85;8.25;;;;;;;-149.78;100.00;50577.06;5119575;27;20454;-74
2021/12/14 02:46:39;;;;;;;24.35;8.23;;;;;;;-149.78;100.00;50573.16;5118342;27;20035;-74
2021/12/14 02:49:11;;;;;;;25.73;8.38;;;;;;;-149.78;100.00;50616.19;5118070;27;20046;-74
2021/12/14 02:51:40;;;;;;;24.35;8.35;;;;;;;-149.78;100.00;50561.41;5135633;27;20110;-74
2021/12/14 02:54:27;;;;;;;24.55;8.63;;;;;;;-149.78;100.00;50592.72;5136889;27;20405;-74
2021/12/14 02:56:59;;;;;;;23.05;8.40;;;;;;;-149.78;100.00;50588.78;5136950;27;20484;-74
2021/12/14 02:59:32;;;;;;;27.83;9.05;;;;;;;-149.78;100.00;50571.19;5119390;27;20031;-75
2021/12/14 03:02:04;;;;;;;25.45;8.93;;;;;;;-149.78;100.00;50600.53;5136077;27;20035;-74
2021/12/14 03:04:31;;;;;;;23.65;9.15;;;;;;;-149.78;100.00;50588.78;5136454;27;20027;-74
2021/12/14 03:07:00;;;;;;;30.35;11.07;;;;;;;-149.78;100.00;50600.53;5136488;27;20038;-74
2021/12/14 03:12:15;;;;;;;33.63;11.23;;;;;;;-149.78;100.00;50584.88;5136527;27;20058;-74
2021/12/14 03:14:54;;;;;;;38.08;11.40;;;;;;;-149.78;100.00;50600.53;5136405;27;20030;-74
2021/12/14 03:17:21;;;;;;;26.33;9.18;;;;;;;-149.78;100.00;50610.31;5117621;27;20080;-74
2021/12/14 03:20:05;;;;;;;26.98;9.63;;;;;;;-149.78;100.00;50596.63;5135983;27;20077;-74
2021/12/14 03:22:41;;;;;;;28.27;10.05;;;;;;;-149.78;100.00;50577.06;5135825;27;20027;-75
2021/12/14 03:25:08;;;;;;;27.85;8.35;;;;;;;-149.78;100.00;50584.88;5135797;27;20027;-74
2021/12/14 03:27:38;;;;;;;24.10;8.48;;;;;;;-149.78;100.00;50606.41;5135788;27;20122;-74
2021/12/14 03:30:18;;;;;;;22.23;8.60;;;;;;;-149.78;100.00;50602.47;5135893;27;20110;-75
2021/12/14 03:32:43;;;;;;;26.23;8.02;;;;;;;-149.78;100.00;50620.09;5117462;27;20382;-74
2021/12/14 03:35:09;;;;;;;24.05;8.77;;;;;;;-149.78;100.00;50592.72;5117064;27;20031;-74
2021/12/14 03:37:34;;;;;;;21.52;7.80;;;;;;;-149.78;100.00;50588.78;5091806;27;20031;-74
2021/12/14 03:40:03;;;;;;;19.33;7.65;;;;;;;-149.78;100.00;50600.53;5100193;27;20478;-74
2021/12/14 03:42:37;;;;;;;24.30;7.95;;;;;;;-149.78;100.00;50600.53;5117206;27;20027;-75
2021/12/14 03:45:21;;;;;;;23.60;7.25;;;;;;;-149.78;100.00;50608.34;5135864;27;20027;-75
2021/12/14 03:47:55;;;;;;;24.42;7.85;;;;;;;-149.78;100.00;50571.19;5135625;27;20067;-74
2021/12/14 03:50:26;;;;;;;23.10;7.07;;;;;;;-149.78;100.00;50588.78;5136032;27;20034;-74
2021/12/14 03:52:52;;;;;;;18.58;6.70;;;;;;;-149.78;100.00;50584.88;5122474;27;20068;-75
2021/12/14 03:55:37;;;;;;;14.77;5.38;;;;;;;-149.78;100.00;50584.88;5135318;27;20027;-74
2021/12/14 03:58:16;;;;;;;14.27;5.13;;;;;;;-149.78;100.00;50616.19;5135474;27;20027;-75
2021/12/14 04:00:47;;;;;;;13.93;4.68;;;;;;;-149.78;100.00;50580.97;5126641;27;20027;-74
2021/12/14 04:03:15;;;;;;;13.07;4.72;;;;;;;-149.78;100.00;50608.34;5113326;27;20039;-74
2021/12/14 04:05:46;;;;;;;11.20;4.38;;;;;;;-149.78;100.00;50622.03;5135712;27;20027;-74
2021/12/14 04:08:13;;;;;;;14.00;4.68;;;;;;;-149.78;100.00;50608.34;5100518;27;20042;-74
2021/12/14 04:10:41;;;;;;;13.13;4.93;;;;;;;-149.78;100.00;50594.66;5135666;27;20373;-74
2021/12/14 04:13:08;;;;;;;13.48;5.00;;;;;;;-149.78;100.00;50620.09;5135943;27;20027;-74
2021/12/14 04:15:34;;;;;;;15.07;5.70;;;;;;;-149.78;100.00;50604.44;5117224;28;20072;-74
2021/12/14 04:18:01;;;;;;;16.92;6.03;;;;;;;-149.78;100.00;50592.72;5135145;27;20031;-74
2021/12/14 04:20:35;;;;;;;17.95;5.90;;;;;;;-149.78;100.00;50643.56;5100128;27;20039;-75
2021/12/14 04:23:02;;;;;;;19.73;6.07;;;;;;;-149.78;100.00;50553.59;5134810;27;20041;-74
2021/12/14 04:25:32;;;;;;;18.70;6.13;;;;;;;-149.78;100.00;50571.19;5100362;28;20043;-75
2021/12/14 04:28:00;;;;;;;22.02;6.38;;;;;;;-149.78;100.00;50584.88;5134963;27;20030;-74
2021/12/14 04:30:27;;;;;;;26.20;7.25;;;;;;;-149.78;100.00;50588.78;5099866;28;20041;-74
2021/12/14 04:32:59;;;;;;;25.65;7.45;;;;;;;-149.78;100.00;50582.94;5106416;28;20027;-75
2021/12/14 04:35:25;;;;;;;29.80;8.07;;;;;;;-149.78;100.00;50596.63;5111293;28;20032;-75
2021/12/14 04:37:55;;;;;;;24.40;7.55;;;;;;;-149.78;100.00;50588.78;5116476;28;20042;-74
2021/12/14 04:52:00;;;;;;;28.30;8.63;;;;;;;-149.78;100.00;50584.88;5135459;28;20031;-74
2021/12/14 04:54:48;;;;;;;25.90;6.78;;;;;;;-149.78;100.00;50604.44;5135318;28;20035;-74
2021/12/14 04:57:17;;;;;;;32.78;7.43;;;;;;;-149.78;100.00;50594.66;5116162;28;20043;-74
2021/12/14 04:59:43;;;;;;;24.73;7.85;;;;;;;-149.78;100.00;50592.72;5132776;28;20118;-75
2021/12/14 05:02:16;;;;;;;27.75;8.00;;;;;;;-149.78;100.00;50565.31;5096185;28;20028;-74
2021/12/14 05:04:41;;;;;;;33.20;7.70;;;;;;;-149.78;100.00;50627.91;5116227;27;20154;-74
2021/12/14 05:07:34;;;;;;;23.58;6.88;;;;;;;-149.78;100.00;50604.44;5116587;28;20036;-74
2021/12/14 05:10:03;;;;;;;26.73;7.03;;;;;;;-149.78;100.00;50616.19;5134669;27;20068;-75
2021/12/14 05:12:32;;;;;;;21.52;6.05;;;;;;;-149.78;100.00;50569.22;5116836;28;20027;-74
2021/12/14 05:15:01;;;;;;;18.63;5.68;;;;;;;-149.78;100.00;50600.53;5120032;27;20019;-74
2021/12/14 05:17:33;;;;;;;18.20;5.65;;;;;;;-149.78;100.00;50608.34;5138655;27;20042;-74
2021/12/14 05:19:59;;;;;;;23.60;6.90;;;;;;;-149.78;100.00;50580.97;5138649;27;20042;-75
2021/12/14 05:22:33;;;;;;;25.55;7.63;;;;;;;-149.78;100.00;50582.94;5120220;27;20062;-75
2021/12/14 05:25:05;;;;;;;22.63;7.03;;;;;;;-149.78;100.00;50561.41;5119980;27;20079;-74
2021/12/14 05:27:35;;;;;;;22.08;6.97;;;;;;;-149.78;100.00;50557.50;5120136;27;20051;-74
2021/12/14 05:30:22;;;;;;;15.07;5.18;;;;;;;-149.78;100.00;50579.00;5138729;27;20054;-74
2021/12/14 05:32:49;;;;;;;17.88;5.47;;;;;;;-149.78;100.00;50559.47;5138097;27;20030;-74
2021/12/14 05:35:18;;;;;;;16.30;5.75;;;;;;;-149.78;100.00;50577.06;5138071;27;20537;-74
2021/12/14 05:37:51;;;;;;;16.48;6.15;;;;;;;-149.78;100.00;50580.97;5118606;27;20030;-74
2021/12/14 05:43:18;;;;;;;16.05;5.88;;;;;;;-149.78;100.00;50573.16;5138339;27;20138;-75
2021/12/14 05:45:49;;;;;;;16.00;5.25;;;;;;;-149.78;100.00;50606.41;5102821;27;20035;-74
2021/12/14 05:48:27;;;;;;;14.70;5.35;;;;;;;-149.78;100.00;50616.19;5119687;27;20061;-74
2021/12/14 05:51:03;;;;;;;17.90;5.20;;;;;;;-149.78;100.00;50584.88;5119796;27;20122;-74
2021/12/14 05:53:32;;;;;;;14.45;5.28;;;;;;;-149.78;100.00;50580.97;5119827;27;20465;-75
2021/12/14 05:56:01;;;;;;;16.42;5.18;;;;;;;-149.78;100.00;50600.53;5138809;27;20065;-74
2021/12/14 05:58:28;;;;;;;14.13;4.70;;;;;;;-149.78;100.00;50594.66;5120263;27;20031;-74
2021/12/14 06:01:00;;;;;;;17.83;5.43;;;;;;;-149.78;100.00;50596.63;5119992;27;20046;-74
2021/12/14 06:03:31;;;;;;;21.13;5.43;;;;;;;-149.78;100.00;50596.63;5138422;27;20110;-74
2021/12/14 06:05:59;;;;;;;17.80;5.43;;;;;;;-149.78;100.00;50622.03;5138326;27;20035;-74
2021/12/14 06:08:31;;;;;;;18.38;5.97;;;;;;;-149.78;100.00;50604.44;5119762;27;20042;-74
2021/12/14 06:10:57;;;;;;;;;;;;;;;-149.78;100.00;50616.19;5138819;27;20031;-75
2021/12/14 06:13:44;;;;;;;18.73;6.28;;;;;;;-149.78;100.00;50557.50;5119809;27;20406;-74
2021/12/14 06:16:30;;;;;;;13.27;4.95;;;;;;;-149.78;100.00;50557.50;5138113;27;20038;-75
2021/12/14 06:19:15;;;;;;;15.45;5.43;;;;;;;-149.78;100.00;50614.22;5119674;27;20433;-74
2021/12/14 06:21:42;;;;;;;14.60;5.45;;;;;;;-149.78;100.00;50606.41;5105767;27;20046;-74
2021/12/14 06:24:11;;;;;;;19.67;5.53;;;;;;;-149.78;100.00;50596.63;5119463;27;20031;-74
2021/12/14 06:26:50;;;;;;;16.35;5.70;;;;;;;-149.78;100.00;50575.09;5119497;27;20325;-75
2021/12/14 06:29:38;;;;;;;21.90;6.30;;;;;;;-149.78;100.00;50600.53;5138214;27;20035;-74
2021/12/14 06:32:25;;;;;;;18.63;6.47;;;;;;;-149.78;100.00;50624.00;5138183;27;20069;-74
2021/12/14 06:35:00;;;;;;;18.70;6.60;;;;;;;-149.78;100.00;50586.84;5137835;27;20455;-74
2021/12/14 06:40:09;;;;;;;16.83;6.22;;;;;;;-149.78;100.00;50596.63;5138178;27;20038;-75
2021/12/14 06:42:40;;;;;;;15.52;5.90;;;;;;;-149.78;100.00;50602.47;5130186;27;20105;-75
2021/12/14 06:45:12;;;;;;;17.40;5.60;;;;;;;-149.78;100.00;50606.41;5142390;27;20414;-74
2021/12/14 06:47:41;;;;;;;19.45;6.10;;;;;;;-149.78;100.00;50600.53;5115603;27;20054;-74
2021/12/14 06:50:13;;;;;;;20.63;6.68;;;;;;;-149.78;100.00;50624.00;5115459;27;20054;-74
2021/12/14 06:52:40;;;;;;;13.60;5.65;;;;;;;-149.78;100.00;50600.53;5101899;27;20076;-74
2021/12/14 06:55:18;;;;;;;17.67;5.70;;;;;;;-149.78;100.00;50616.19;5120665;27;20019;-75
2021/12/14 06:57:44;;;;;;;17.30;6.35;;;;;;;-149.78;100.00;50620.09;5119561;27;20027;-72
2021/12/14 07:00:11;;;;;;;20.73;6.30;;;;;;;-149.78;100.00;50571.19;5139041;27;20038;-72
2021/12/14 07:02:37;;;;;;;16.55;5.85;;;;;;;-149.78;100.00;50620.09;5135742;27;20106;-72
2021/12/14 07:05:03;;;;;;;18.40;7.00;;;;;;;-149.78;100.00;50620.09;5143530;27;20118;-74
2021/12/14 07:07:30;;;;;;;19.75;6.38;;;;;;;-149.78;100.00;50586.84;5118146;27;20038;-73
2021/12/14 07:09:59;;;;;;;18.45;6.25;;;;;;;-149.78;100.00;50577.06;5100567;27;20034;-73
2021/12/14 07:12:29;;;;;;;25.67;7.68;;;;;;;-149.78;100.00;50600.53;5145158;27;20054;-73
2021/12/14 07:15:00;;;;;;;22.27;8.30;;;;;;;-149.78;100.00;50600.53;5119531;27;20026;-71
2021/12/14 07:17:29;;;;;;;29.33;8.05;;;;;;;-149.78;100.00;50610.31;5119647;27;20033;-75
2021/12/14 07:19:57;;;;;;;24.13;8.00;;;;;;;-149.78;100.00;50592.72;5117521;27;20106;-74
2021/12/14 07:22:23;;;;;;;28.30;8.95;;;;;;;-149.78;100.00;50596.63;5115062;27;20036;-69
2021/12/14 07:25:14;;;;;;;29.85;7.70;;;;;;;-149.78;100.00;50596.63;5156097;27;20474;-71
2021/12/14 07:28:16;;;;;;;24.58;7.72;;;;;;;-149.78;100.00;50590.75;5120605;27;20478;-71
2021/12/14 07:30:55;;;;;;;28.83;8.13;;;;;;;-149.78;100.00;50596.63;5103903;27;20043;-71
2021/12/14 07:33:24;;;;;;;27.48;8.32;;;;;;;-149.78;100.00;50573.16;5135191;27;20027;-73
2021/12/14 07:36:06;;;;;;;26.20;8.25;;;;;;;-149.78;100.00;50602.47;5125905;27;20019;-80
2021/12/14 07:38:40;;;;;;;20.10;6.45;;;;;;;-149.78;100.00;50614.22;5116849;27;20082;-71
2021/12/14 07:41:08;;;;;;;22.58;7.53;;;;;;;-149.78;100.00;50604.44;5135372;27;20031;-69
2021/12/14 07:43:49;;;;;;;25.92;7.55;;;;;;;-149.78;100.00;50580.97;5131067;27;20059;-71
2021/12/14 07:46:19;;;;;;;18.98;6.13;;;;;;;-149.78;100.00;50584.88;5114537;28;20023;-68
2021/12/14 07:48:49;;;;;;;21.40;6.68;;;;;;;-149.78;100.00;50612.25;5136069;27;20030;-74
2021/12/14 07:51:17;;;;;;;15.88;5.38;;;;;;;-149.78;100.00;50577.06;5154844;27;20019;-69
2021/12/14 07:54:03;;;;;;;16.95;6.22;;;;;;;-149.78;100.00;50588.78;5146392;27;20069;-70
2021/12/14 07:56:37;;;;;;;18.30;6.57;;;;;;;-149.78;100.00;50596.63;5136326;27;20025;-69
2021/12/14 07:59:29;;;;;;;17.83;5.35;;;;;;;-149.78;100.00;50573.16;5148200;27;20110;-71
2021/12/14 08:02:22;;;;;;;15.45;4.88;;;;;;;-149.78;100.00;50600.53;5128847;27;20019;-71
2021/12/14 08:04:54;;;;;;;15.80;5.43;;;;;;;-149.78;100.00;50573.16;5128895;27;20026;-71
2021/12/14 08:07:43;;;;;;;14.27;4.68;;;;;;;-149.78;100.00;50565.31;5150748;27;20039;-71
2021/12/14 08:10:23;;;;;;;12.80;4.82;;;;;;;-149.78;100.00;50631.81;5151681;27;20038;-71
2021/12/14 08:12:52;;;;;;;11.90;4.35;;;;;;;-149.78;100.00;50606.41;5129387;27;20395;-71
2021/12/14 08:15:23;;;;;;;14.27;5.00;;;;;;;-149.78;100.00;50612.25;5136596;27;20027;-72
2021/12/14 08:18:00;;;;;;;14.75;4.65;;;;;;;-149.78;100.00;50622.03;5116224;28;20495;-72
2021/12/14 08:20:26;;;;;;;17.63;5.40;;;;;;;-149.78;100.00;50627.91;5134419;27;20031;-71
2021/12/14 08:22:54;;;;;;;13.75;4.75;;;;;;;-149.78;100.00;50590.75;5134649;27;20039;-71
2021/12/14 08:25:29;;;;;;;18.33;5.32;;;;;;;-149.78;100.00;50596.63;5126531;27;20062;-71
2021/12/14 08:28:00;;;;;;;13.40;5.68;;;;;;;-149.78;100.00;50600.53;5117590;27;20035;-71
2021/12/14 08:30:26;;;;;;;20.58;5.97;;;;;;;-149.78;100.00;50604.44;5150712;27;20502;-71
2021/12/14 08:32:52;;;;;;;20.80;5.75;;;;;;;-149.78;100.00;50580.97;5151659;27;20054;-71
2021/12/14 08:35:18;;;;;;;22.58;6.40;;;;;;;-149.78;100.00;50606.41;5155300;27;20473;-71
2021/12/14 08:37:50;;;;;;;18.63;5.03;;;;;;;-149.78;100.00;50541.84;5139866;27;20092;-72
2021/12/14 08:40:37;;;;;;;15.95;5.47;;;;;;;-149.78;100.00;50596.63;5134427;27;20031;-71
2021/12/14 08:43:13;;;;;;;16.17;5.70;;;;;;;-149.78;100.00;50596.63;5134416;28;20359;-71
2021/12/14 08:45:47;;;;;;;16.80;4.95;;;;;;;-149.78;100.00;50580.97;5138355;27;20381;-71
2021/12/14 08:48:30;;;;;;;15.45;4.95;;;;;;;-149.78;100.00;50600.53;5157284;27;20123;-71
2021/12/14 08:51:17;;;;;;;18.02;4.70;;;;;;;-149.78;100.00;50596.63;5159167;27;20125;-72
2021/12/14 08:53:53;;;;;;;14.57;4.35;;;;;;;-149.78;100.00;50600.53;5159098;27;20026;-72
2021/12/14 08:56:21;;;;;;;17.10;4.88;;;;;;;-149.78;100.00;50549.69;5159080;27;20030;-72
2021/12/14 08:58:48;;;;;;;14.30;5.13;;;;;;;-149.78;100.00;50620.09;5140548;27;20039;-71
2021/12/14 09:01:17;;;;;;;12.80;4.90;;;;;;;-149.78;100.00;50588.78;5149040;27;20545;-71
2021/12/14 09:04:02;;;;;;;13.98;4.88;;;;;;;-149.78;100.00;50557.50;5122095;27;20035;-72
2021/12/14 09:06:31;;;;;;;16.50;4.25;;;;;;;-149.78;100.00;50584.88;5119317;27;20040;-72
2021/12/14 09:09:06;;;;;;;12.52;4.13;;;;;;;-149.78;100.00;50588.78;5138022;27;20031;-71
2021/12/14 09:11:35;;;;;;;11.02;4.40;;;;;;;-149.78;100.00;50600.53;5119846;27;20035;-71
2021/12/14 09:14:03;;;;;;;13.05;4.80;;;;;;;-149.78;100.00;50580.97;5138066;27;20031;-71
2021/12/14 09:16:32;;;;;;;11.55;4.75;;;;;;;-149.78;100.00;50608.34;5119507;27;20063;-71
2021/12/14 09:19:03;;;;;;;12.70;4.22;;;;;;;-149.78;100.00;50584.88;5137960;27;20071;-71
2021/12/14 09:21:33;;;;;;;14.00;5.43;;;;;;;-149.78;100.00;50580.97;5135247;27;20031;-71
2021/12/14 09:24:05;;;;;;;15.32;5.30;;;;;;;-149.78;100.00;50598.56;5137270;27;20086;-71
2021/12/14 09:26:35;;;;;;;15.65;4.88;;;;;;;-149.78;100.00;50604.44;5158352;27;20035;-71
2021/12/14 09:29:07;;;;;;;14.70;5.22;;;;;;;-149.78;100.00;50627.91;5144100;27;20027;-71
2021/12/14 09:31:37;;;;;;;12.85;5.07;;;;;;;-149.78;100.00;50577.06;5129273;27;20057;-71
2021/12/14 09:34:05;;;;;;;16.42;6.00;;;;;;;-149.78;100.00;50573.16;5130824;27;20055;-71
2021/12/14 09:36:32;;;;;;;13.35;5.70;;;;;;;-149.78;100.00;50565.31;5117437;27;20023;-71
2021/12/14 09:39:07;;;;;;;17.50;5.57;;;;;;;-149.78;100.00;50577.06;5136774;27;20061;-71
2021/12/14 09:41:33;;;;;;;15.55;4.95;;;;;;;-149.78;100.00;50541.84;5117373;27;20365;-70
2021/12/14 09:44:04;;;;;;;18.52;5.53;;;;;;;-149.78;100.00;50561.41;5116413;27;20070;-71
2021/12/14 09:46:32;;;;;;;13.75;5.50;;;;;;;-149.78;100.00;50608.34;5136389;27;20038;-71
2021/12/14 09:49:01;;;;;;;17.92;5.80;;;;;;;-149.78;100.00;50592.72;5136130;27;20050;-70
2021/12/14 09:51:32;;;;;;;15.93;6.40;;;;;;;-149.78;100.00;50596.63;5144237;27;20027;-71
2021/12/14 09:54:01;;;;;;;14.15;5.60;;;;;;;-149.78;100.00;50577.06;5137851;27;20019;-71
2021/12/14 09:56:36;;;;;;;15.38;5.82;;;;;;;-149.78;100.00;50561.41;5155767;27;20110;-71
2021/12/14 09:59:04;;;;;;;16.58;5.93;;;;;;;-149.78;100.00;50561.41;5149123;27;20055;-71
2021/12/14 10:01:38;;;;;;;13.80;4.88;;;;;;;-149.78;100.00;50588.78;5128073;27;20035;-71
2021/12/14 10:04:09;;;;;;;13.57;5.20;;;;;;;-149.78;100.00;50580.97;5155440;27;20027;-72
2021/12/14 10:06:35;;;;;;;12.75;4.90;;;;;;;-149.78;100.00;50541.84;5148431;27;20070;-71
2021/12/14 10:09:07;;;;;;;13.75;5.35;;;;;;;-149.78;100.00;50586.84;5128384;27;20122;-71
2021/12/14 10:14:25;;;;;;;11.38;4.22;;;;;;;-149.78;100.00;50612.25;5119298;27;19934;-71
2021/12/14 10:16:51;;;;;;;13.18;4.70;;;;;;;-149.78;100.00;50557.50;5154551;27;20026;-72
2021/12/14 10:19:21;;;;;;;9.50;4.13;;;;;;;-149.78;100.00;50547.72;5142063;27;20038;-71
2021/12/14 10:22:01;;;;;;;14.75;4.25;;;;;;;-149.78;100.00;50600.53;5120611;27;20377;-71
2021/12/14 10:24:27;;;;;;;12.52;4.72;;;;;;;-149.78;100.00;50600.53;5136491;27;20059;-70
2021/12/14 10:27:00;;;;;;;11.40;4.35;;;;;;;-149.78;100.00;50582.94;5136110;27;20104;-71
2021/12/14 10:29:29;;;;;;;10.63;4.60;;;;;;;-149.78;100.00;50588.78;5117828;27;20054;-71
2021/12/14 10:32:03;;;;;;;10.55;4.00;;;;;;;-149.78;100.00;50561.41;5136145;27;20031;-71
2021/12/14 10:34:39;;;;;;;9.50;4.22;;;;;;;-149.78;100.00;50549.69;5136068;27;20038;-71
2021/12/14 10:37:17;;;;;;;11.43;4.43;;;;;;;-149.78;100.00;50577.06;5135768;27;20023;-72
2021/12/14 10:43:04;;;;;;;11.95;4.25;;;;;;;-149.78;100.00;50563.38;5132311;27;20028;-70
2021/12/14 10:45:28;;;;;;;8.07;3.33;;;;;;;-149.78;100.00;50549.69;5135963;27;20492;-70
2021/12/14 10:47:56;;;;;;;9.60;4.03;;;;;;;-149.78;100.00;50579.00;5132485;27;20058;-73
2021/12/14 10:50:27;;;;;;;7.82;3.55;;;;;;;-149.78;100.00;50608.34;5119730;27;20432;-72
2021/12/14 10:52:53;;;;;;;8.73;2.88;;;;;;;-149.78;100.00;50553.59;5124538;27;20042;-72
2021/12/14 10:55:32;;;;;;;8.57;3.20;;;;;;;-149.78;100.00;50561.41;5141722;27;20496;-71
2021/12/14 10:57:57;;;;;;;5.20;2.70;;;;;;;-149.78;100.00;50592.72;5137101;27;20415;-71
2021/12/14 11:00:31;;;;;;;7.60;3.03;;;;;;;-149.78;100.00;50577.06;5136674;27;20046;-70
2021/12/14 11:03:05;;;;;;;7.20;2.92;;;;;;;-149.78;100.00;50612.25;5122350;27;20070;-70
2021/12/14 11:05:33;;;;;;;6.57;2.65;;;;;;;-149.78;100.00;50557.50;5138312;27;20400;-70
2021/12/14 11:07:59;;;;;;;7.38;2.92;;;;;;;-149.78;100.00;50557.50;5143991;27;20033;-72
2021/12/14 11:10:36;;;;;;;7.20;2.55;;;;;;;-149.78;100.00;50561.41;5126232;27;20030;-72
2021/12/14 11:13:09;;;;;;;9.25;3.08;;;;;;;-149.78;100.00;50553.59;5118331;27;20462;-69
2021/12/14 11:15:40;;;;;;;8.52;3.30;;;;;;;-149.78;100.00;50577.06;5152445;27;20027;-71
2021/12/14 11:18:17;;;;;;;7.65;3.15;;;;;;;-149.78;100.00;50577.06;5142129;27;20035;-71
2021/12/14 11:20:51;;;;;;;7.28;3.00;;;;;;;-149.78;100.00;50537.94;5154542;27;20033;-71
2021/12/14 11:23:45;;;;;;;8.35;3.50;;;;;;;-149.78;100.00;50577.06;5143492;27;20030;-71
2021/12/14 11:26:28;;;;;;;9.95;3.28;;;;;;;-149.78;100.00;50571.19;5145033;27;20039;-72
2021/12/14 11:28:55;;;;;;;;;;;;;;;-149.78;100.00;50561.41;5149862;27;20075;-70
2021/12/14 11:31:29;;;;;;;8.43;3.75;;;;;;;-149.78;100.00;50510.56;5151785;27;19919;-70
2021/12/14 11:34:01;;;;;;;9.48;3.22;;;;;;;-149.78;100.00;50577.06;5148997;27;20391;-70
2021/12/14 11:36:32;;;;;;;10.27;3.53;;;;;;;-149.78;100.00;50539.91;5121758;27;20034;-70
2021/12/14 11:39:05;;;;;;;9.57;3.67;;;;;;;-149.78;100.00;50532.06;5134713;27;20031;-71
2021/12/14 11:41:52;;;;;;;8.70;3.38;;;;;;;-149.78;100.00;50569.22;5134623;27;20030;-70
2021/12/14 11:44:26;;;;;;;7.80;3.03;;;;;;;-149.78;100.00;50551.63;5139659;27;20114;-71
2021/12/14 11:46:58;;;;;;;6.18;3.03;;;;;;;-149.78;100.00;50553.59;5132378;27;20058;-71
2021/12/14 11:49:41;;;;;;;7.45;3.78;;;;;;;-149.78;100.00;50526.22;5131165;27;20033;-70
2021/12/14 11:52:06;;;;;;;7.40;3.45;;;;;;;-149.78;100.00;50551.63;5136887;27;20080;-70
2021/12/14 11:54:43;;;;;;;6.65;3.25;;;;;;;-149.78;100.00;50565.31;5141383;27;20027;-70
2021/12/14 11:57:09;;;;;;;7.07;3.58;;;;;;;-149.78;100.00;50590.75;5135848;27;20027;-70
2021/12/14 11:59:35;;;;;;;8.57;3.63;;;;;;;-149.78;100.00;50561.41;5131381;27;20466;-71
2021/12/14 12:02:03;;;;;;;6.80;3.15;;;;;;;-149.78;100.00;50565.31;5130041;27;20030;-72
2021/12/14 12:04:34;;;;;;;7.97;3.75;;;;;;;-149.78;100.00;50510.56;5115331;27;20035;-71